Time;durP1;ratioP1;P1;durP2;ratioP2;P2;SDS_P1;SDS_P2;PMS_P1;PMS_P2;Temp;Humidity;BMP_temperature;BMP_pressure;BME280_temperature;BME280_humidity;BME280_pressure;Samples;Min_cycle;Max_cycle;Signal;HPM_P1;HPM_P2
2022/08/01 00:01:14;;;;;;;5.65;1.90;;;;;;;21.98;45.79;99391.75;4458637;32;32175;-62
2022/08/01 00:03:42;;;;;;;5.75;2.35;;;;;;;22.02;45.80;99384.03;4457912;32;33998;-62
2022/08/01 00:06:09;;;;;;;6.57;2.50;;;;;;;22.12;45.70;99384.56;4445058;32;33223;-62
2022/08/01 00:08:37;;;;;;;2.78;1.73;;;;;;;22.09;45.51;99377.59;4458813;32;33472;-62
2022/08/01 00:11:05;;;;;;;5.37;2.22;;;;;;;22.18;45.33;99385.66;4440190;32;32293;-60
2022/08/01 00:13:32;;;;;;;3.58;2.12;;;;;;;22.02;45.67;99386.75;4464574;32;32910;-62
2022/08/01 00:15:59;;;;;;;4.20;1.95;;;;;;;21.81;46.17;99383.03;4461260;32;33643;-62
2022/08/01 00:18:27;;;;;;;5.97;1.73;;;;;;;21.87;45.76;99374.06;4463804;32;31667;-61
2022/08/01 00:20:55;;;;;;;3.67;1.95;;;;;;;21.99;45.53;99382.56;4458776;32;34968;-60
2022/08/01 00:23:23;;;;;;;3.75;2.10;;;;;;;21.95;45.66;99380.41;4457615;32;33749;-60
2022/08/01 00:25:51;;;;;;;3.97;2.22;;;;;;;21.92;45.87;99370.75;4457989;32;32263;-64
2022/08/01 00:28:18;;;;;;;4.05;1.80;;;;;;;22.01;45.92;99376.91;4457970;32;33169;-60
2022/08/01 00:30:46;;;;;;;5.45;2.25;;;;;;;22.07;45.86;99370.66;4459899;32;33582;-61
2022/08/01 00:33:13;;;;;;;5.62;2.10;;;;;;;22.10;45.58;99367.53;4457732;32;33696;-61
2022/08/01 00:35:41;;;;;;;7.82;2.45;;;;;;;22.14;45.45;99365.25;4459371;32;34031;-61
2022/08/01 00:38:08;;;;;;;4.12;2.25;;;;;;;22.14;45.47;99365.25;4443389;32;31815;-61
2022/08/01 00:40:36;;;;;;;4.47;2.30;;;;;;;21.88;45.83;99364.00;4457362;32;33996;-61
2022/08/01 00:43:04;;;;;;;6.43;2.45;;;;;;;21.61;46.54;99354.78;4467330;32;33821;-62
2022/08/01 00:45:31;;;;;;;3.00;1.70;;;;;;;21.83;45.90;99355.59;4460350;32;33415;-62
2022/08/01 00:47:59;;;;;;;5.18;2.60;;;;;;;21.65;46.42;99361.50;4455728;32;33440;-61
2022/08/01 00:50:27;;;;;;;4.53;2.40;;;;;;;21.75;46.26;99363.91;4455027;32;34973;-61
2022/08/01 00:52:55;;;;;;;4.90;2.60;;;;;;;21.77;46.14;99359.13;4443033;32;33671;-61
2022/08/01 00:55:23;;;;;;;3.90;1.90;;;;;;;21.63;46.48;99360.84;4438864;32;33988;-61
2022/08/01 00:57:50;;;;;;;4.65;2.30;;;;;;;21.47;46.84;99361.97;4449919;32;33096;-61
2022/08/01 01:00:34;;;;;;;5.40;2.42;;;;;;;21.36;47.30;99360.59;4463237;32;32507;-63
2022/08/01 01:03:22;;;;;;;4.22;2.22;;;;;;;21.45;46.75;99360.50;4453018;32;35025;-61
2022/08/01 01:06:13;;;;;;;3.80;1.95;;;;;;;21.37;47.23;99365.00;4459988;32;32704;-61
2022/08/01 01:08:59;;;;;;;3.80;1.90;;;;;;;21.37;46.82;99366.88;4466861;32;32405;-60
2022/08/01 01:11:44;;;;;;;4.50;2.25;;;;;;;21.37;46.86;99364.16;4451351;32;32887;-60
2022/08/01 01:14:35;;;;;;;4.37;2.17;;;;;;;21.27;47.10;99375.34;4441194;32;35237;-60
2022/08/01 01:17:06;;;;;;;4.25;2.10;;;;;;;21.39;46.59;99367.53;4434850;32;34411;-59
2022/08/01 01:19:39;;;;;;;4.57;1.70;;;;;;;21.40;46.67;99372.78;4451542;32;32185;-59
2022/08/01 01:22:17;;;;;;;4.85;2.35;;;;;;;21.56;46.38;99371.69;4443974;32;34364;-61
2022/08/01 01:25:17;;;;;;;4.55;2.20;;;;;;;21.62;46.24;99373.63;4459416;32;32982;-59
2022/08/01 01:27:54;;;;;;;4.50;2.33;;;;;;;21.65;46.21;99374.28;4441376;32;33891;-59
2022/08/01 01:30:24;;;;;;;3.92;2.25;;;;;;;21.62;46.11;99376.34;4444896;32;32900;-60
2022/08/01 01:32:52;;;;;;;4.95;2.37;;;;;;;21.56;46.12;99374.41;4447526;32;34964;-60
2022/08/01 01:35:24;;;;;;;4.87;2.50;;;;;;;21.43;46.56;99371.56;4456057;32;35064;-61
2022/08/01 01:37:58;;;;;;;4.60;2.17;;;;;;;21.26;46.87;99373.66;4457265;32;34868;-62
2022/08/01 01:40:26;;;;;;;4.05;2.20;;;;;;;21.30;46.89;99369.50;4440642;32;34654;-60
2022/08/01 01:42:56;;;;;;;3.80;2.25;;;;;;;21.43;46.63;99363.38;4447431;32;33926;-61
2022/08/01 01:45:24;;;;;;;3.70;1.85;;;;;;;21.42;46.77;99355.44;4438008;32;33593;-60
2022/08/01 01:47:52;;;;;;;5.35;2.20;;;;;;;21.53;46.44;99363.91;4448305;32;34572;-60
2022/08/01 01:50:21;;;;;;;5.45;2.60;;;;;;;21.52;46.37;99364.12;4450851;32;33225;-61
2022/08/01 01:52:50;;;;;;;6.90;2.17;;;;;;;21.33;46.95;99355.50;4446159;32;35024;-63
2022/08/01 01:55:19;;;;;;;5.47;2.55;;;;;;;21.30;47.06;99357.78;4433743;32;33608;-63
2022/08/01 01:57:47;;;;;;;5.12;2.50;;;;;;;21.26;46.95;99351.06;4437935;32;34868;-61
2022/08/01 02:00:15;;;;;;;7.03;3.00;;;;;;;21.24;47.06;99356.66;4440275;32;33313;-61
2022/08/01 02:02:44;;;;;;;5.10;2.67;;;;;;;21.15;47.37;99349.66;4442211;32;33558;-59
2022/08/01 02:05:12;;;;;;;4.25;2.62;;;;;;;21.22;47.28;99356.03;4448837;32;33605;-60
2022/08/01 02:07:40;;;;;;;4.35;2.22;;;;;;;21.18;47.17;99355.56;4446399;32;34846;-60
2022/08/01 02:10:09;;;;;;;4.72;2.62;;;;;;;21.42;46.80;99352.72;4450462;32;34543;-59
2022/08/01 02:12:39;;;;;;;4.53;1.98;;;;;;;21.38;47.07;99342.22;4441005;32;34633;-60
2022/08/01 02:15:07;;;;;;;4.43;2.25;;;;;;;21.60;46.42;99340.31;4443987;32;35001;-61
2022/08/01 02:17:39;;;;;;;4.07;2.15;;;;;;;21.63;46.54;99337.19;4438749;32;34700;-64
2022/08/01 02:20:08;;;;;;;3.78;2.20;;;;;;;21.64;46.38;99338.06;4440176;32;33422;-63
2022/08/01 02:22:57;;;;;;;5.05;2.87;;;;;;;21.62;46.34;99329.22;4448137;32;34681;-61
2022/08/01 02:25:31;;;;;;;5.12;2.72;;;;;;;21.66;46.21;99332.41;4439186;32;34334;-61
2022/08/01 02:28:07;;;;;;;5.03;2.40;;;;;;;21.51;46.46;99337.91;4438580;32;33965;-61
2022/08/01 02:30:38;;;;;;;4.00;2.40;;;;;;;21.53;46.52;99333.13;4436792;32;34305;-62
2022/08/01 02:33:10;;;;;;;5.10;2.53;;;;;;;21.40;46.88;99331.09;4438096;32;32272;-63
2022/08/01 02:35:46;;;;;;;5.20;2.80;;;;;;;21.45;46.89;99330.53;4450732;32;33864;-68
2022/08/01 02:38:37;;;;;;;5.82;2.47;;;;;;;21.42;46.87;99336.38;4450122;32;34870;-64
2022/08/01 02:41:08;;;;;;;4.78;2.42;;;;;;;21.50;46.79;99342.50;4442640;32;34544;-64
2022/08/01 02:43:43;;;;;;;5.32;2.40;;;;;;;21.46;46.87;99346.66;4446788;32;36623;-64
2022/08/01 02:46:28;;;;;;;4.82;2.55;;;;;;;21.51;46.66;99348.78;4435676;32;32665;-62
2022/08/01 02:48:59;;;;;;;5.47;3.03;;;;;;;21.61;46.81;99339.28;4435442;32;34498;-62
2022/08/01 02:51:28;;;;;;;4.32;2.28;;;;;;;21.69;46.42;99334.72;4435608;32;32910;-63
2022/08/01 02:53:56;;;;;;;4.97;2.37;;;;;;;21.69;46.13;99334.72;4436774;32;34462;-63
2022/08/01 02:56:34;;;;;;;4.37;2.35;;;;;;;21.68;45.80;99335.78;4433558;32;33605;-62
2022/08/01 02:59:06;;;;;;;4.43;2.22;;;;;;;21.75;45.70;99333.94;4436654;32;33669;-65
2022/08/01 03:01:35;;;;;;;4.55;2.50;;;;;;;21.78;45.45;99322.66;4435050;32;31709;-65
2022/08/01 03:04:04;;;;;;;4.03;2.25;;;;;;;21.71;45.79;99325.31;4437666;32;32617;-63
2022/08/01 03:06:33;;;;;;;4.30;1.80;;;;;;;21.70;45.71;99318.22;4440705;32;33865;-64
2022/08/01 03:09:02;;;;;;;5.32;2.62;;;;;;;21.73;45.73;99322.37;4438968;32;34336;-63
2022/08/01 03:11:31;;;;;;;6.50;2.70;;;;;;;21.74;45.85;99316.75;4437021;32;33230;-62
2022/08/01 03:14:01;;;;;;;5.05;1.75;;;;;;;21.74;45.96;99316.75;4435741;32;34876;-61
2022/08/01 03:16:31;;;;;;;4.60;2.40;;;;;;;21.88;45.61;99317.69;4433913;32;34199;-61
2022/08/01 03:19:01;;;;;;;4.50;2.40;;;;;;;21.88;45.58;99323.16;4435930;32;35190;-64
2022/08/01 03:21:29;;;;;;;6.90;2.97;;;;;;;21.81;45.66;99314.94;4436795;32;32410;-65
2022/08/01 03:24:00;;;;;;;5.20;2.35;;;;;;;21.82;45.86;99313.88;4437543;32;34722;-64
2022/08/01 03:26:30;;;;;;;5.75;2.55;;;;;;;21.84;45.86;99316.41;4425622;32;33169;-61
2022/08/01 03:29:02;;;;;;;4.25;2.50;;;;;;;21.72;46.18;99313.38;4436644;32;33714;-63
2022/08/01 03:31:30;;;;;;;4.37;2.60;;;;;;;21.83;46.08;99320.19;4435969;32;34553;-63
2022/08/01 03:33:58;;;;;;;6.55;2.72;;;;;;;21.88;46.02;99309.53;4437844;32;33456;-61
2022/08/01 03:36:33;;;;;;;6.30;3.00;;;;;;;21.86;46.17;99308.88;4435972;32;33887;-63
2022/08/01 03:39:03;;;;;;;7.07;2.55;;;;;;;21.88;46.20;99312.25;4434706;32;33843;-62
2022/08/01 03:41:34;;;;;;;7.10;2.95;;;;;;;21.96;46.16;99308.53;4465750;32;34173;-62
2022/08/01 03:44:05;;;;;;;6.18;2.72;;;;;;;21.96;46.55;99308.53;4451223;32;33660;-62
2022/08/01 03:46:42;;;;;;;4.75;2.70;;;;;;;22.06;46.23;99314.47;4446932;32;34588;-66
2022/08/01 03:49:18;;;;;;;7.00;3.20;;;;;;;22.06;46.27;99304.41;4439140;32;33614;-61
2022/08/01 03:51:49;;;;;;;6.90;2.65;;;;;;;22.13;46.13;99314.53;4440107;32;34558;-63
2022/08/01 03:54:21;;;;;;;5.00;2.60;;;;;;;22.23;46.14;99317.75;4455831;32;33589;-63
2022/08/01 03:56:50;;;;;;;3.87;2.28;;;;;;;22.30;45.84;99311.28;4455743;32;33987;-63
2022/08/01 03:59:18;;;;;;;4.90;2.60;;;;;;;22.34;46.03;99322.63;4463959;32;34670;-62
2022/08/01 04:01:46;;;;;;;6.35;2.90;;;;;;;22.18;46.63;99322.97;4444106;32;34347;-66
2022/08/01 04:04:14;;;;;;;5.40;2.90;;;;;;;21.91;47.34;99330.94;4445599;32;35015;-60
2022/08/01 04:06:44;;;;;;;6.45;2.67;;;;;;;22.13;46.95;99329.00;4445088;32;33860;-63
2022/08/01 04:09:12;;;;;;;4.87;2.60;;;;;;;22.28;46.76;99334.38;4451131;32;34135;-61
2022/08/01 04:11:41;;;;;;;5.12;2.60;;;;;;;22.43;46.35;99335.06;4451943;32;34480;-61
2022/08/01 04:14:08;;;;;;;6.50;3.25;;;;;;;22.49;46.30;99331.53;4449414;32;33550;-64
2022/08/01 04:16:37;;;;;;;4.37;2.62;;;;;;;21.94;47.88;99337.87;4459860;32;33885;-59
2022/08/01 04:19:07;;;;;;;6.93;2.95;;;;;;;22.08;47.37;99342.34;4452940;32;33604;-63
2022/08/01 04:21:35;;;;;;;5.35;3.15;;;;;;;22.14;47.44;99340.72;4454999;32;33327;-62
2022/08/01 04:24:14;;;;;;;4.10;2.53;;;;;;;22.43;47.10;99340.53;4454132;32;32368;-62
2022/08/01 04:26:43;;;;;;;4.35;2.42;;;;;;;22.42;46.77;99340.72;4437702;32;32398;-60
2022/08/01 04:29:11;;;;;;;4.55;2.33;;;;;;;21.95;48.46;99339.53;4451560;32;33793;-61
2022/08/01 04:31:42;;;;;;;5.12;2.62;;;;;;;22.18;48.06;99345.59;4439445;32;32828;-62
2022/08/01 04:34:11;;;;;;;5.62;2.85;;;;;;;21.99;48.48;99338.09;4462164;32;34729;-65
2022/08/01 04:36:41;;;;;;;4.93;2.90;;;;;;;22.63;46.75;99343.38;4462345;32;34080;-61
2022/08/01 04:39:09;;;;;;;5.50;2.50;;;;;;;22.51;47.31;99339.53;4465309;32;34853;-61
2022/08/01 04:41:38;;;;;;;6.28;2.90;;;;;;;22.35;47.65;99337.97;4443418;32;31917;-62
2022/08/01 04:44:06;;;;;;;4.43;2.50;;;;;;;22.46;47.00;99337.37;4450467;32;33840;-63
2022/08/01 04:46:36;;;;;;;3.37;2.10;;;;;;;22.70;46.51;99343.41;4462583;32;35218;-61
2022/08/01 04:49:06;;;;;;;5.62;2.62;;;;;;;22.23;47.66;99339.56;4441224;32;34347;-60
2022/08/01 04:51:34;;;;;;;5.80;2.80;;;;;;;23.06;45.98;99347.78;4449924;32;34144;-61
2022/08/01 04:54:02;;;;;;;3.62;2.15;;;;;;;23.21;45.55;99348.41;4456956;32;33728;-64
2022/08/01 04:56:29;;;;;;;4.05;2.60;;;;;;;23.07;45.63;99352.16;4454995;32;34017;-61
2022/08/01 05:01:50;;;;;;;4.80;2.35;;;;;;;22.94;46.37;99347.50;4466669;32;33374;-63
2022/08/01 05:04:18;;;;;;;4.28;2.60;;;;;;;23.15;45.84;99341.91;4451352;32;35053;-61
2022/08/01 05:06:46;;;;;;;4.30;2.37;;;;;;;22.75;46.34;99346.34;4456553;32;34890;-61
2022/08/01 05:09:13;;;;;;;4.62;2.50;;;;;;;23.42;45.07;99344.69;4458125;32;33959;-61
2022/08/01 05:11:41;;;;;;;4.05;2.55;;;;;;;22.84;46.56;99347.03;4453293;32;33220;-62
2022/08/01 05:14:08;;;;;;;4.60;2.47;;;;;;;23.31;45.63;99346.16;4452486;32;33849;-64
2022/08/01 05:16:36;;;;;;;5.93;2.78;;;;;;;23.60;44.57;99349.56;4449163;32;34073;-60
2022/08/01 05:19:04;;;;;;;8.35;3.10;;;;;;;23.12;45.55;99344.22;4465413;32;33720;-60
2022/08/01 05:21:31;;;;;;;5.45;2.85;;;;;;;23.15;45.53;99331.00;4459200;32;33303;-61
2022/08/01 05:23:59;;;;;;;4.47;2.83;;;;;;;23.13;45.63;99340.44;4454748;32;34918;-63
2022/08/01 05:26:27;;;;;;;5.45;2.67;;;;;;;23.49;44.79;99335.44;4460015;32;33716;-62
2022/08/01 05:28:55;;;;;;;5.85;2.92;;;;;;;23.53;45.09;99341.38;4453319;32;34651;-62
2022/08/01 05:31:22;;;;;;;5.22;2.53;;;;;;;23.70;44.44;99333.62;4455685;32;32020;-61
2022/08/01 05:33:51;;;;;;;5.10;2.58;;;;;;;23.40;45.25;99338.59;4443089;32;33427;-62
2022/08/01 05:36:18;;;;;;;4.30;2.62;;;;;;;23.45;45.73;99328.72;4462344;32;34068;-62
2022/08/01 05:38:46;;;;;;;8.98;2.92;;;;;;;23.54;45.42;99334.84;4451824;32;33585;-64
2022/08/01 05:41:13;;;;;;;6.85;2.58;;;;;;;23.87;44.59;99337.59;4458363;32;33376;-64
2022/08/01 05:43:41;;;;;;;5.07;3.12;;;;;;;23.38;45.31;99332.50;4465274;32;33589;-62
2022/08/01 05:46:08;;;;;;;5.10;2.67;;;;;;;23.73;44.39;99333.22;4459125;32;32885;-62
2022/08/01 05:48:36;;;;;;;4.28;2.50;;;;;;;23.70;44.61;99330.91;4461239;32;34247;-63
2022/08/01 05:51:04;;;;;;;5.53;3.10;;;;;;;23.90;44.23;99333.62;4457861;32;33651;-63
2022/08/01 05:53:34;;;;;;;3.97;2.60;;;;;;;23.29;45.48;99337.31;4465653;32;32903;-63
2022/08/01 05:56:01;;;;;;;5.25;2.58;;;;;;;23.80;44.85;99335.94;4464534;32;33628;-64
2022/08/01 05:58:29;;;;;;;4.22;2.37;;;;;;;23.91;44.99;99340.75;4456207;32;33352;-63
2022/08/01 06:00:57;;;;;;;4.60;2.53;;;;;;;23.62;45.77;99341.97;4455984;32;33307;-65
2022/08/01 06:03:25;;;;;;;6.68;2.97;;;;;;;23.63;45.40;99351.88;4451635;32;34002;-61
2022/08/01 06:05:52;;;;;;;5.97;3.17;;;;;;;23.79;44.85;99345.16;4457560;32;34053;-66
2022/08/01 06:08:20;;;;;;;4.20;2.70;;;;;;;23.49;45.76;99345.53;4452095;32;35044;-62
2022/08/01 06:10:48;;;;;;;6.68;3.05;;;;;;;23.46;45.78;99340.50;4454825;32;34961;-62
2022/08/01 06:13:16;;;;;;;6.85;3.17;;;;;;;23.84;45.31;99351.69;4458476;32;33749;-62
2022/08/01 06:15:44;;;;;;;6.30;3.25;;;;;;;23.62;45.77;99361.09;4458331;32;34065;-62
2022/08/01 06:18:12;;;;;;;4.85;2.90;;;;;;;23.80;45.77;99349.59;4462465;32;33616;-65
2022/08/01 06:20:40;;;;;;;5.47;3.20;;;;;;;23.90;46.05;99358.22;4464707;32;32048;-62
2022/08/01 06:23:08;;;;;;;5.07;2.97;;;;;;;23.62;46.20;99351.00;4467867;32;33774;-62
2022/08/01 06:25:55;;;;;;;5.18;2.75;;;;;;;23.21;46.89;99357.47;4453415;32;33730;-65
2022/08/01 06:28:23;;;;;;;4.97;2.78;;;;;;;23.70;46.29;99358.22;4461961;32;33560;-62
2022/08/01 06:30:51;;;;;;;5.97;3.00;;;;;;;23.45;47.03;99361.50;4456174;32;32521;-68
2022/08/01 06:33:18;;;;;;;6.03;3.00;;;;;;;23.74;46.45;99356.75;4452794;32;34786;-66
2022/08/01 06:35:46;;;;;;;5.55;3.10;;;;;;;23.90;46.47;99359.06;4451533;32;32521;-62
2022/08/01 06:38:13;;;;;;;5.60;3.22;;;;;;;24.15;46.74;99352.94;4457643;32;33730;-66
2022/08/01 06:40:41;;;;;;;7.50;2.70;;;;;;;24.66;45.23;99357.72;4453638;32;32046;-62
2022/08/01 06:43:11;;;;;;;5.93;3.35;;;;;;;23.81;46.99;99362.22;4453605;32;34714;-61
2022/08/01 06:45:39;;;;;;;5.18;2.92;;;;;;;24.17;46.64;99359.03;4451811;32;33810;-64
2022/08/01 06:48:07;;;;;;;6.05;2.75;;;;;;;24.26;45.72;99363.22;4451856;32;33506;-63
2022/08/01 06:50:38;;;;;;;6.12;3.30;;;;;;;24.55;45.46;99364.66;4459784;32;33420;-63
2022/08/01 06:53:05;;;;;;;4.97;2.62;;;;;;;24.48;45.66;99357.53;4462143;32;34081;-62
2022/08/01 06:55:33;;;;;;;5.35;2.97;;;;;;;24.09;44.85;99359.25;4466409;32;35253;-64
2022/08/01 06:58:01;;;;;;;6.40;3.08;;;;;;;24.98;42.89;99358.63;4456046;32;33668;-65
2022/08/01 07:00:28;;;;;;;4.90;2.60;;;;;;;24.61;43.56;99358.34;4455744;32;33142;-63
2022/08/01 07:02:58;;;;;;;7.43;2.67;;;;;;;24.53;44.92;99355.84;4454452;32;33487;-62
2022/08/01 07:05:26;;;;;;;3.70;2.35;;;;;;;24.61;43.76;99347.41;4453329;32;32624;-61
2022/08/01 07:07:53;;;;;;;4.70;2.58;;;;;;;25.10;42.85;99353.28;4453430;32;34306;-64
2022/08/01 07:10:21;;;;;;;4.65;2.35;;;;;;;25.28;42.09;99347.13;4448435;32;32989;-61
2022/08/01 07:12:49;;;;;;;5.47;2.65;;;;;;;25.29;43.50;99346.91;4455063;32;33724;-62
2022/08/01 07:15:18;;;;;;;5.25;2.60;;;;;;;25.65;42.33;99347.28;4465845;32;34275;-62
2022/08/01 07:17:45;;;;;;;4.70;2.15;;;;;;;25.44;40.74;99346.59;4456191;32;34745;-65
2022/08/01 07:20:13;;;;;;;4.85;2.40;;;;;;;25.40;40.70;99350.03;4466568;32;34343;-62
2022/08/01 07:22:43;;;;;;;3.87;2.33;;;;;;;25.18;40.56;99347.59;4456352;32;32575;-62
2022/08/01 07:25:14;;;;;;;7.12;2.47;;;;;;;25.16;39.97;99355.19;4450710;32;34130;-62
2022/08/01 07:27:41;;;;;;;6.20;2.42;;;;;;;25.13;41.28;99350.16;4465538;32;32544;-61
2022/08/01 07:30:09;;;;;;;5.87;2.80;;;;;;;25.64;40.41;99346.44;4455841;32;33575;-62
2022/08/01 07:32:37;;;;;;;5.40;2.50;;;;;;;26.17;38.89;99351.53;4457092;32;33774;-64
2022/08/01 07:35:05;;;;;;;4.75;2.40;;;;;;;26.13;39.60;99358.53;4463528;32;33792;-67
2022/08/01 07:37:33;;;;;;;6.18;2.65;;;;;;;26.05;40.56;99363.47;4454276;32;33592;-63
2022/08/01 07:40:17;;;;;;;4.93;2.30;;;;;;;25.86;40.16;99365.31;4458615;32;33109;-62
2022/08/01 07:42:45;;;;;;;6.72;3.12;;;;;;;25.62;40.61;99359.56;4443358;32;32341;-63
2022/08/01 07:45:14;;;;;;;5.37;2.20;;;;;;;25.87;40.48;99361.50;4456344;32;34123;-65
2022/08/01 07:47:42;;;;;;;7.30;2.75;;;;;;;26.21;38.69;99362.88;4450137;32;32295;-65
2022/08/01 07:50:10;;;;;;;5.05;2.58;;;;;;;26.05;37.24;99364.28;4452318;32;33351;-63
2022/08/01 07:52:37;;;;;;;4.32;2.42;;;;;;;25.93;38.20;99360.59;4458973;32;34707;-62
2022/08/01 07:55:06;;;;;;;5.20;2.50;;;;;;;26.02;37.87;99370.22;4454068;32;35221;-66
2022/08/01 07:57:33;;;;;;;6.65;2.60;;;;;;;26.09;37.55;99365.53;4463898;32;34780;-62
2022/08/01 08:00:03;;;;;;;6.87;2.87;;;;;;;26.00;38.35;99377.81;4462909;32;33374;-64
2022/08/01 08:02:31;;;;;;;5.47;2.20;;;;;;;26.10;38.29;99366.34;4453729;32;32460;-62
2022/08/01 08:04:58;;;;;;;6.07;2.80;;;;;;;26.45;38.79;99369.37;4462867;32;34273;-61
2022/08/01 08:07:26;;;;;;;5.18;2.28;;;;;;;26.24;39.69;99363.28;4459660;32;33751;-66
2022/08/01 08:09:54;;;;;;;4.07;2.40;;;;;;;26.07;38.90;99367.66;4465225;32;34650;-61
2022/08/01 08:12:21;;;;;;;4.25;2.58;;;;;;;26.23;39.39;99375.31;4466427;32;33738;-64
2022/08/01 08:14:58;;;;;;;8.70;2.53;;;;;;;26.14;39.72;99379.41;4459645;32;32878;-62
2022/08/01 08:17:27;;;;;;;5.05;2.70;;;;;;;26.20;39.26;99370.28;4452158;32;34142;-65
2022/08/01 08:19:54;;;;;;;5.90;2.87;;;;;;;26.20;39.45;99372.19;4458411;32;31962;-64
2022/08/01 08:22:22;;;;;;;5.25;2.50;;;;;;;26.29;39.65;99370.81;4451588;32;33799;-66
2022/08/01 08:24:49;;;;;;;5.53;2.78;;;;;;;26.23;39.62;99371.75;4450892;32;33987;-63
2022/08/01 08:27:17;;;;;;;5.70;2.78;;;;;;;26.34;39.38;99373.72;4455265;32;33989;-63
2022/08/01 08:29:45;;;;;;;6.22;2.70;;;;;;;26.23;39.93;99385.47;4455465;32;32026;-61
2022/08/01 08:32:13;;;;;;;4.80;2.70;;;;;;;26.63;39.34;99385.06;4457320;32;33689;-62
2022/08/01 08:34:41;;;;;;;7.12;2.72;;;;;;;26.44;38.94;99375.94;4451156;32;32608;-66
2022/08/01 08:37:10;;;;;;;6.28;2.60;;;;;;;26.37;38.97;99383.41;4451454;32;33679;-62
2022/08/01 08:39:37;;;;;;;6.30;2.85;;;;;;;25.92;39.77;99381.69;4456028;32;33248;-62
2022/08/01 08:42:10;;;;;;;6.15;2.90;;;;;;;26.35;38.23;99383.63;4453815;32;33746;-62
2022/08/01 08:44:40;;;;;;;5.20;2.70;;;;;;;26.42;38.45;99394.53;4460561;32;35950;-64
2022/08/01 08:47:12;;;;;;;4.50;2.65;;;;;;;26.52;38.73;99391.28;4461618;32;32637;-62
2022/08/01 08:49:48;;;;;;;6.35;2.80;;;;;;;25.70;40.03;99391.31;4464112;32;34627;-62
2022/08/01 08:52:19;;;;;;;4.45;2.53;;;;;;;26.19;39.63;99404.25;4441726;32;32463;-62
2022/08/01 08:54:48;;;;;;;5.43;2.87;;;;;;;26.24;39.57;99395.34;4451566;32;33688;-66
2022/08/01 08:57:16;;;;;;;7.43;3.95;;;;;;;26.38;39.36;99394.16;4454699;32;33999;-62
2022/08/01 08:59:44;;;;;;;5.53;2.70;;;;;;;26.29;39.06;99391.91;4445172;32;33167;-60
2022/08/01 09:02:12;;;;;;;8.48;3.62;;;;;;;26.55;38.78;99391.72;4452254;32;33777;-62
2022/08/01 09:04:41;;;;;;;5.50;2.40;;;;;;;26.24;39.03;99390.69;4444202;32;34757;-62
2022/08/01 09:07:10;;;;;;;5.30;2.90;;;;;;;26.07;38.66;99396.97;4460689;32;32307;-63
2022/08/01 09:09:38;;;;;;;4.87;2.67;;;;;;;26.26;39.00;99395.97;4459982;32;32753;-66
2022/08/01 09:12:08;;;;;;;5.70;3.17;;;;;;;26.20;38.93;99399.63;4451003;32;33477;-64
2022/08/01 09:14:45;;;;;;;5.30;3.00;;;;;;;26.07;39.07;99400.56;4450687;32;33830;-63
2022/08/01 09:17:13;;;;;;;7.47;3.05;;;;;;;26.02;38.86;99395.75;4460892;32;34905;-64
2022/08/01 09:19:54;;;;;;;4.78;2.72;;;;;;;25.72;39.18;99397.44;4455651;32;33298;-61
2022/08/01 09:22:25;;;;;;;6.05;3.58;;;;;;;26.47;38.92;99398.28;4462305;32;32736;-63
2022/08/01 09:25:04;;;;;;;6.72;3.05;;;;;;;26.29;38.51;99394.66;4462184;32;35316;-62
2022/08/01 09:27:34;;;;;;;7.15;3.03;;;;;;;26.17;39.17;99400.06;4447170;32;33990;-62
2022/08/01 09:30:09;;;;;;;12.07;3.53;;;;;;;26.10;39.40;99396.53;4455921;32;31829;-63
2022/08/01 09:32:56;;;;;;;5.65;3.08;;;;;;;26.15;39.23;99393.97;4455434;32;34905;-63
2022/08/01 09:35:34;;;;;;;5.43;2.95;;;;;;;26.04;39.00;99397.44;4459303;32;33871;-66
2022/08/01 09:38:20;;;;;;;6.00;2.90;;;;;;;26.14;39.54;99395.88;4453220;32;35006;-62
2022/08/01 09:40:56;;;;;;;4.68;2.78;;;;;;;26.73;38.18;99387.28;4459007;32;31953;-65
2022/08/01 09:43:27;;;;;;;7.47;2.97;;;;;;;26.72;37.51;99394.69;4466535;32;34165;-64
2022/08/01 09:45:55;;;;;;;5.05;2.78;;;;;;;26.39;38.33;99392.28;4460018;32;33877;-61
2022/08/01 09:48:27;;;;;;;6.90;3.28;;;;;;;26.98;37.26;99387.22;4463672;32;33040;-63
2022/08/01 09:50:58;;;;;;;7.20;3.00;;;;;;;27.38;37.22;99390.28;4466794;32;32106;-62
2022/08/01 09:53:46;;;;;;;7.95;3.30;;;;;;;27.85;36.28;99393.22;4465258;32;33851;-63
2022/08/01 09:56:21;;;;;;;6.22;3.12;;;;;;;27.61;36.20;99387.62;4459214;32;35065;-67
2022/08/01 09:58:57;;;;;;;4.60;2.92;;;;;;;27.55;36.86;99393.25;4464235;32;34291;-62
2022/08/01 10:01:48;;;;;;;6.50;3.20;;;;;;;27.46;36.84;99389.13;4467311;32;34668;-62
2022/08/01 10:04:20;;;;;;;7.82;4.05;;;;;;;27.55;35.98;99387.75;4465303;32;35044;-62
2022/08/01 10:06:52;;;;;;;5.78;3.45;;;;;;;27.84;36.71;99384.13;4449329;32;32915;-62
2022/08/01 10:09:29;;;;;;;8.23;3.40;;;;;;;27.68;35.82;99379.28;4463900;32;34823;-66
2022/08/01 10:12:08;;;;;;;4.32;3.22;;;;;;;27.94;35.31;99380.81;4453239;32;33417;-61
2022/08/01 10:14:45;;;;;;;4.62;3.00;;;;;;;27.98;35.19;99383.91;4462439;32;35070;-68
2022/08/01 10:17:18;;;;;;;5.18;3.10;;;;;;;27.82;34.94;99382.69;4463115;32;33992;-60
2022/08/01 10:19:47;;;;;;;4.55;3.20;;;;;;;28.34;34.23;99385.59;4463362;32;33543;-66
2022/08/01 10:22:16;;;;;;;5.10;3.15;;;;;;;27.94;34.43;99388.22;4447853;32;34349;-63
2022/08/01 10:24:47;;;;;;;5.35;3.20;;;;;;;27.55;35.16;99385.00;4464381;32;34838;-63
2022/08/01 10:27:18;;;;;;;6.40;3.47;;;;;;;28.07;34.30;99386.09;4457205;32;32422;-65
2022/08/01 10:30:05;;;;;;;6.40;3.17;;;;;;;28.39;33.98;99382.16;4456277;32;33976;-64
2022/08/01 10:32:50;;;;;;;6.20;3.50;;;;;;;28.25;34.35;99385.16;4461688;32;33152;-65
2022/08/01 10:35:18;;;;;;;5.28;3.00;;;;;;;28.80;34.14;99370.16;4456836;32;35046;-67
2022/08/01 10:38:06;;;;;;;4.90;3.08;;;;;;;28.00;35.53;99373.53;4462085;32;34970;-64
2022/08/01 10:40:42;;;;;;;6.47;3.07;;;;;;;28.27;35.48;99360.97;4465396;32;35038;-63
2022/08/01 10:43:11;;;;;;;5.85;2.85;;;;;;;28.40;35.15;99370.09;4454565;32;33495;-65
2022/08/01 10:45:40;;;;;;;5.62;3.12;;;;;;;28.10;35.19;99373.78;4454732;32;33551;-65
2022/08/01 10:48:18;;;;;;;7.95;3.50;;;;;;;27.93;35.92;99368.13;4447767;32;34030;-68
2022/08/01 10:50:49;;;;;;;5.18;3.08;;;;;;;27.95;35.37;99365.12;4442876;32;33583;-66
2022/08/01 10:53:22;;;;;;;6.03;3.40;;;;;;;28.21;35.31;99367.41;4444349;32;32195;-65
2022/08/01 10:56:07;;;;;;;4.60;2.90;;;;;;;28.86;33.43;99362.84;4454957;32;34219;-63
2022/08/01 10:58:37;;;;;;;5.22;3.05;;;;;;;28.09;35.30;99367.44;4446317;32;33594;-63
2022/08/01 11:01:20;;;;;;;5.25;2.90;;;;;;;28.18;34.37;99367.06;4453073;32;33809;-68
2022/08/01 11:04:00;;;;;;;5.00;3.20;;;;;;;28.27;34.25;99358.22;4458836;32;34733;-64
2022/08/01 11:07:15;;;;;;;4.55;2.62;;;;;;;28.76;34.08;99352.44;4447931;32;32400;-65
2022/08/01 11:09:44;;;;;;;5.20;2.78;;;;;;;28.62;34.19;99359.31;4461469;32;32851;-64
2022/08/01 11:12:19;;;;;;;6.32;3.30;;;;;;;29.34;32.58;99356.97;4461404;32;33951;-65
2022/08/01 11:15:00;;;;;;;5.05;2.97;;;;;;;28.81;33.04;99349.81;4454168;32;33391;-65
2022/08/01 11:17:38;;;;;;;5.20;3.08;;;;;;;28.92;33.13;99346.16;4454592;32;35206;-64
2022/08/01 11:20:13;;;;;;;7.07;2.72;;;;;;;29.55;33.24;99340.78;4454763;32;34152;-65
2022/08/01 11:23:06;;;;;;;4.60;2.45;;;;;;;29.31;32.39;99348.31;4467059;32;34660;-62
2022/08/01 11:25:33;;;;;;;4.40;2.40;;;;;;;29.54;31.63;99339.97;4462942;32;33326;-67
2022/08/01 11:28:24;;;;;;;5.43;2.47;;;;;;;29.84;31.60;99341.59;4454978;32;33870;-63
2022/08/01 11:31:07;;;;;;;3.95;2.20;;;;;;;29.86;30.80;99334.75;4458307;32;34017;-62
2022/08/01 11:33:41;;;;;;;9.68;2.50;;;;;;;29.83;29.20;99343.53;4454997;32;34961;-62
2022/08/01 11:36:12;;;;;;;5.12;2.50;;;;;;;29.74;30.11;99336.75;4466638;32;32153;-61
2022/08/01 11:38:45;;;;;;;5.72;2.37;;;;;;;29.07;31.16;99333.81;4454349;32;32644;-66
2022/08/01 11:41:15;;;;;;;4.82;2.30;;;;;;;28.66;31.00;99330.19;4458867;32;34029;-62
2022/08/01 11:44:05;;;;;;;4.55;2.20;;;;;;;28.60;31.16;99336.66;4455864;32;33888;-66
2022/08/01 11:46:51;;;;;;;3.62;1.95;;;;;;;28.88;31.11;99333.97;4454472;32;34303;-62
2022/08/01 11:49:32;;;;;;;3.45;2.10;;;;;;;28.95;30.63;99334.66;4437543;32;34638;-63
2022/08/01 11:52:10;;;;;;;4.97;2.37;;;;;;;29.54;30.53;99331.69;4444640;32;33872;-64
2022/08/01 11:54:43;;;;;;;4.07;2.67;;;;;;;28.97;31.86;99331.69;4454275;32;33807;-64
2022/08/01 11:57:14;;;;;;;4.40;2.47;;;;;;;29.19;32.63;99329.94;4453855;32;33998;-63